createdAt,value
2022-09-17T00:01:56.051Z,0.20
2022-09-17T00:04:26.083Z,0.50
2022-09-17T00:06:57.160Z,0.10
2022-09-17T00:09:29.575Z,0.40
2022-09-17T00:11:59.574Z,0.28
2022-09-17T00:14:29.494Z,0.32
2022-09-17T00:17:01.935Z,0.10
2022-09-17T00:19:32.676Z,0.20
2022-09-17T00:22:03.259Z,0.95
2022-09-17T00:24:33.542Z,0.13
2022-09-17T00:27:03.557Z,0.57
2022-09-17T00:29:33.757Z,0.10
2022-09-17T00:32:03.971Z,0.35
2022-09-17T00:34:34.692Z,0.68
2022-09-17T00:37:04.763Z,0.17
2022-09-17T00:39:34.754Z,0.32
2022-09-17T00:42:11.789Z,0.43
2022-09-17T00:44:49.310Z,0.13
2022-09-17T00:47:24.044Z,0.38
2022-09-17T00:49:58.676Z,0.10
2022-09-17T00:52:34.137Z,0.40
2022-09-17T00:55:13.161Z,0.10
2022-09-17T00:57:43.289Z,0.25
2022-09-17T01:00:14.528Z,0.30
2022-09-17T01:02:45.697Z,0.57
2022-09-17T01:05:16.274Z,0.22
2022-09-17T01:08:04.769Z,0.15
2022-09-17T01:10:37.970Z,0.50
2022-09-17T01:13:17.115Z,2.38
2022-09-17T01:16:05.533Z,2.08
2022-09-17T01:18:44.284Z,0.40
2022-09-17T01:21:22.426Z,0.38
2022-09-17T01:24:30.138Z,0.70
2022-09-17T01:27:18.322Z,9.35
2022-09-17T01:30:19.570Z,0.85
2022-09-17T01:33:24.327Z,1.52
2022-09-17T01:35:57.843Z,0.77
2022-09-17T01:38:50.273Z,2.28
2022-09-17T01:41:26.219Z,2.70
2022-09-17T01:44:13.754Z,1.48
2022-09-17T01:46:50.765Z,1.17
2022-09-17T01:49:20.858Z,2.58
2022-09-17T01:51:50.895Z,1.65
2022-09-17T01:54:46.785Z,1.83
2022-09-17T01:57:34.870Z,3.53
2022-09-17T02:00:08.240Z,6.18
2022-09-17T02:03:02.469Z,2.22
2022-09-17T02:06:00.340Z,2.38
2022-09-17T02:08:39.149Z,3.58
2022-09-17T02:11:13.556Z,3.95
2022-09-17T02:14:01.288Z,4.18
2022-09-17T02:16:35.902Z,1.70
2022-09-17T02:19:26.714Z,2.80
2022-09-17T02:22:02.670Z,2.30
2022-09-17T02:24:46.459Z,2.50
2022-09-17T02:27:28.009Z,2.53
2022-09-17T02:29:58.064Z,2.15
2022-09-17T02:32:28.336Z,1.42
2022-09-17T02:34:58.979Z,5.85
2022-09-17T02:37:29.072Z,3.58
2022-09-17T02:39:59.634Z,4.65
2022-09-17T02:42:57.753Z,4.72
2022-09-17T02:45:49.764Z,4.82
2022-09-17T02:48:44.165Z,7.43
2022-09-17T02:51:46.922Z,12.02
2022-09-17T02:54:35.749Z,10.55
2022-09-17T02:57:30.311Z,5.68
2022-09-17T03:00:11.200Z,5.45
2022-09-17T03:02:48.425Z,6.93
2022-09-17T03:05:22.424Z,3.38
2022-09-17T03:07:52.710Z,4.90
2022-09-17T03:10:22.683Z,9.18
2022-09-17T03:12:53.856Z,6.45
2022-09-17T03:15:24.282Z,6.40
2022-09-17T03:17:54.745Z,8.10
2022-09-17T03:20:24.779Z,5.40
2022-09-17T03:22:54.733Z,7.35
2022-09-17T03:25:24.697Z,7.78
2022-09-17T03:27:54.695Z,5.90
2022-09-17T03:30:24.625Z,8.43
2022-09-17T03:32:54.503Z,6.88
2022-09-17T03:35:24.487Z,4.43
2022-09-17T03:37:54.561Z,8.10
2022-09-17T03:40:24.484Z,3.97
2022-09-17T03:42:54.446Z,3.58
2022-09-17T03:45:24.523Z,5.78
2022-09-17T03:47:54.606Z,4.78
2022-09-17T03:50:24.666Z,4.97
2022-09-17T03:52:54.604Z,16.58
2022-09-17T03:55:24.531Z,5.88
2022-09-17T03:57:54.520Z,4.22
2022-09-17T04:00:24.706Z,2.55
2022-09-17T04:02:54.768Z,5.97
2022-09-17T04:05:24.963Z,8.85
2022-09-17T04:07:55.061Z,3.22
2022-09-17T04:10:25.134Z,6.78
2022-09-17T04:12:55.016Z,5.93
2022-09-17T04:15:24.926Z,5.75
2022-09-17T04:18:01.255Z,2.50
2022-09-17T04:20:31.260Z,8.15
2022-09-17T04:23:01.166Z,9.40
2022-09-17T04:25:32.214Z,13.40
2022-09-17T04:28:02.625Z,7.90
2022-09-17T04:30:32.907Z,8.68
2022-09-17T04:33:02.981Z,4.85
2022-09-17T04:35:33.435Z,8.63
2022-09-17T04:38:03.882Z,4.93
2022-09-17T04:40:33.964Z,10.63
2022-09-17T04:43:04.687Z,7.88
2022-09-17T04:45:34.886Z,8.70
2022-09-17T04:48:05.415Z,4.72
2022-09-17T04:50:35.381Z,15.35
2022-09-17T04:53:06.365Z,8.32
2022-09-17T04:55:36.652Z,5.72
2022-09-17T04:58:06.792Z,4.82
2022-09-17T05:00:36.792Z,4.65
2022-09-17T05:03:06.782Z,6.22
2022-09-17T05:05:36.727Z,7.13
2022-09-17T05:08:07.030Z,4.38
2022-09-17T05:10:37.031Z,6.00
2022-09-17T05:13:06.959Z,8.00
2022-09-17T05:15:36.875Z,6.65
2022-09-17T05:18:06.908Z,2.83
2022-09-17T05:20:36.946Z,3.58
2022-09-17T05:23:06.871Z,3.00
2022-09-17T05:25:36.738Z,4.63
2022-09-17T05:28:06.690Z,5.65
2022-09-17T05:30:36.681Z,7.28
2022-09-17T05:33:08.267Z,4.28
2022-09-17T05:35:38.464Z,2.38
2022-09-17T05:38:09.264Z,2.58
2022-09-17T05:40:39.770Z,6.97
2022-09-17T05:43:09.827Z,5.63
2022-09-17T05:45:40.573Z,2.50
2022-09-17T05:48:14.812Z,4.00
2022-09-17T05:50:44.743Z,3.67
2022-09-17T05:53:15.141Z,2.42
2022-09-17T05:55:45.451Z,3.53
2022-09-17T05:58:17.835Z,6.13
2022-09-17T06:00:49.861Z,5.55
2022-09-17T06:03:21.273Z,2.80
2022-09-17T06:05:59.474Z,2.70
2022-09-17T06:08:30.849Z,1.77
2022-09-17T06:11:02.687Z,2.63
2022-09-17T06:13:32.798Z,2.70
2022-09-17T06:16:03.503Z,2.67
2022-09-17T06:18:34.424Z,3.97
2022-09-17T06:21:05.101Z,3.28
2022-09-17T06:23:38.372Z,4.13
2022-09-17T06:26:08.693Z,4.07
2022-09-17T06:28:41.680Z,1.75
2022-09-17T06:31:12.883Z,2.08
2022-09-17T06:33:43.326Z,3.13
2022-09-17T06:36:14.807Z,2.75
2022-09-17T06:38:45.913Z,2.47
2022-09-17T06:41:16.191Z,0.95
2022-09-17T06:43:46.460Z,3.28
2022-09-17T06:46:16.890Z,2.47
2022-09-17T06:48:47.765Z,4.05
2022-09-17T06:51:17.725Z,2.53
2022-09-17T06:53:47.899Z,2.83
2022-09-17T06:56:19.009Z,5.38
2022-09-17T06:58:49.576Z,7.70
2022-09-17T07:01:19.620Z,3.53
2022-09-17T07:03:51.058Z,14.25
2022-09-17T07:06:22.206Z,8.13
2022-09-17T07:08:52.587Z,5.57
2022-09-17T07:11:22.797Z,12.80
2022-09-17T07:13:52.778Z,18.38
2022-09-17T07:16:23.273Z,3.78
2022-09-17T07:18:54.414Z,3.92
2022-09-17T07:21:24.340Z,10.55
2022-09-17T07:23:54.532Z,9.50
2022-09-17T07:26:24.916Z,10.95
2022-09-17T07:28:55.609Z,8.25
2022-09-17T07:31:25.677Z,8.23
2022-09-17T07:33:56.429Z,3.85
2022-09-17T07:36:26.768Z,2.35
2022-09-17T07:38:57.111Z,2.90
2022-09-17T07:41:27.520Z,2.53
2022-09-17T07:43:57.601Z,8.43
2022-09-17T07:46:27.898Z,6.28
2022-09-17T07:48:59.560Z,6.13
2022-09-17T07:51:32.710Z,7.18
2022-09-17T07:54:03.484Z,29.67
2022-09-17T07:56:33.866Z,9.18
2022-09-17T07:59:05.406Z,7.95
2022-09-17T08:01:35.791Z,7.20
2022-09-17T08:04:07.240Z,3.33
2022-09-17T08:06:42.266Z,16.58
2022-09-17T08:09:14.131Z,21.05
2022-09-17T08:11:55.475Z,13.18
2022-09-17T08:14:29.617Z,13.18
2022-09-17T08:17:00.653Z,14.88
2022-09-17T08:19:34.104Z,28.25
2022-09-17T08:22:09.505Z,37.55
2022-09-17T08:24:39.476Z,37.45
2022-09-17T08:27:09.558Z,35.28
2022-09-17T08:29:39.517Z,18.13
2022-09-17T08:32:10.017Z,3.10
2022-09-17T08:34:40.074Z,9.38
2022-09-17T08:37:10.202Z,16.80
2022-09-17T08:39:40.672Z,7.10
2022-09-17T08:42:19.633Z,7.20
2022-09-17T08:44:51.995Z,14.95
2022-09-17T08:47:29.109Z,14.88
2022-09-17T08:50:04.910Z,11.30
2022-09-17T08:52:56.746Z,6.80
2022-09-17T08:55:47.920Z,11.57
2022-09-17T08:58:53.812Z,22.35
2022-09-17T09:01:43.906Z,6.15
2022-09-17T09:04:30.660Z,9.30
2022-09-17T09:07:09.959Z,11.00
2022-09-17T09:09:45.857Z,6.45
2022-09-17T09:12:20.565Z,9.23
2022-09-17T09:14:55.897Z,10.57
2022-09-17T09:17:28.359Z,2.13
2022-09-17T09:19:59.289Z,12.68
2022-09-17T09:22:48.646Z,11.70
2022-09-17T09:25:33.784Z,5.72
2022-09-17T09:28:03.800Z,8.38
2022-09-17T09:30:41.637Z,9.02
2022-09-17T09:33:19.604Z,4.50
2022-09-17T09:35:49.590Z,3.85
2022-09-17T09:38:55.212Z,58.55
2022-09-17T09:41:42.140Z,8.15
2022-09-17T09:44:13.529Z,6.50
2022-09-17T09:46:56.065Z,15.38
2022-09-17T09:49:51.416Z,9.93
2022-09-17T09:52:42.684Z,3.65
2022-09-17T09:55:49.300Z,7.35
2022-09-17T09:58:39.726Z,5.88
2022-09-17T10:01:28.679Z,7.82
2022-09-17T10:04:00.171Z,9.32
2022-09-17T10:06:32.587Z,5.28
2022-09-17T10:09:02.848Z,5.97
2022-09-17T10:11:36.714Z,3.08
2022-09-17T10:14:29.857Z,11.32
2022-09-17T10:17:25.047Z,4.30
2022-09-17T10:20:08.760Z,8.80
2022-09-17T10:22:43.604Z,8.82
2022-09-17T10:25:34.885Z,12.63
2022-09-17T10:28:24.748Z,11.23
2022-09-17T10:31:06.325Z,7.80
2022-09-17T10:36:14.178Z,5.80
2022-09-17T10:38:48.506Z,11.27
2022-09-17T10:41:26.188Z,7.82
2022-09-17T10:43:56.129Z,6.53
2022-09-17T10:46:30.435Z,8.35
2022-09-17T10:49:31.138Z,5.25
2022-09-17T10:52:08.992Z,4.40
2022-09-17T10:54:46.501Z,6.63
2022-09-17T10:57:20.150Z,8.07
2022-09-17T11:00:01.743Z,7.50
2022-09-17T11:02:43.896Z,6.35
2022-09-17T11:05:47.458Z,5.72
2022-09-17T11:08:43.523Z,8.50
2022-09-17T11:11:20.507Z,13.23
2022-09-17T11:14:20.605Z,7.72
2022-09-17T11:16:56.419Z,10.98
2022-09-17T11:19:59.014Z,10.27
2022-09-17T11:22:53.583Z,9.77
2022-09-17T11:25:48.693Z,6.90
2022-09-17T11:28:21.194Z,13.65
2022-09-17T11:31:23.207Z,10.48
2022-09-17T11:34:02.841Z,23.80
2022-09-17T11:36:42.599Z,23.83
2022-09-17T11:39:25.719Z,16.13
2022-09-17T11:44:34.123Z,15.35
2022-09-17T11:47:09.893Z,14.40
2022-09-17T11:49:51.864Z,15.57
2022-09-17T11:52:40.840Z,12.68
2022-09-17T11:55:28.701Z,13.70
2022-09-17T11:58:27.960Z,15.45
2022-09-17T12:01:05.482Z,16.75
2022-09-17T12:04:00.769Z,12.48
2022-09-17T12:07:01.758Z,13.60
2022-09-17T12:09:33.744Z,11.93
2022-09-17T12:12:48.281Z,13.05
2022-09-17T12:15:24.477Z,6.57
2022-09-17T12:18:43.804Z,11.73
2022-09-17T12:21:15.211Z,7.88
2022-09-17T12:24:09.594Z,7.30
2022-09-17T12:27:12.081Z,9.05
2022-09-17T12:30:00.783Z,9.93
2022-09-17T12:33:04.282Z,7.93
2022-09-17T12:36:04.130Z,4.18
2022-09-17T12:38:41.833Z,5.60
2022-09-17T12:41:29.513Z,4.78
2022-09-17T12:44:02.848Z,3.35
2022-09-17T12:46:55.290Z,4.30
2022-09-17T12:50:01.840Z,4.50
2022-09-17T12:52:48.809Z,4.05
2022-09-17T12:55:38.236Z,4.15
2022-09-17T12:58:17.081Z,7.78
2022-09-17T13:00:50.569Z,6.45
2022-09-17T13:03:21.372Z,6.40
2022-09-17T13:05:51.913Z,5.75
2022-09-17T13:08:32.856Z,4.80
2022-09-17T13:11:41.280Z,8.25
2022-09-17T13:14:18.603Z,6.53
2022-09-17T13:17:13.105Z,5.35
2022-09-17T13:20:14.729Z,4.47
2022-09-17T13:22:56.341Z,5.07
2022-09-17T13:25:26.378Z,3.40
2022-09-17T13:28:14.353Z,5.35
2022-09-17T13:31:03.275Z,6.40
2022-09-17T13:33:52.657Z,3.88
2022-09-17T13:36:41.721Z,3.80
2022-09-17T13:39:14.072Z,4.47
2022-09-17T13:41:44.234Z,5.82
2022-09-17T13:44:14.216Z,3.10
2022-09-17T13:46:44.305Z,3.38
2022-09-17T13:49:16.359Z,3.30
2022-09-17T13:51:47.348Z,3.95
2022-09-17T13:54:17.739Z,2.45
2022-09-17T13:56:50.377Z,4.07
2022-09-17T13:59:24.190Z,4.88
2022-09-17T14:02:04.337Z,5.25
2022-09-17T14:04:41.912Z,4.88
2022-09-17T14:07:27.845Z,4.78
2022-09-17T14:09:58.788Z,2.40
2022-09-17T14:12:46.385Z,2.63
2022-09-17T14:15:40.830Z,4.53
2022-09-17T14:18:29.010Z,4.85
2022-09-17T14:21:16.809Z,4.68
2022-09-17T14:23:51.902Z,2.42
2022-09-17T14:26:53.396Z,3.33
2022-09-17T14:29:49.881Z,7.50
2022-09-17T14:32:33.436Z,5.63
2022-09-17T14:35:20.078Z,4.10
2022-09-17T14:38:10.512Z,4.07
2022-09-17T14:40:47.429Z,3.35
2022-09-17T14:43:40.140Z,2.67
2022-09-17T14:46:11.839Z,2.73
2022-09-17T14:48:41.737Z,2.47
2022-09-17T14:51:23.590Z,2.80
2022-09-17T14:54:15.704Z,2.85
2022-09-17T14:57:04.872Z,4.07
2022-09-17T14:59:44.748Z,4.60
2022-09-17T15:02:36.204Z,3.38
2022-09-17T15:05:29.690Z,2.53
2022-09-17T15:08:13.344Z,3.90
2022-09-17T15:11:01.696Z,3.42
2022-09-17T15:13:33.474Z,3.22
2022-09-17T15:16:06.146Z,5.88
2022-09-17T15:18:44.023Z,3.28
2022-09-17T15:21:26.711Z,4.45
2022-09-17T15:23:58.525Z,2.13
2022-09-17T15:26:33.520Z,3.37
2022-09-17T15:29:04.113Z,2.67
2022-09-17T15:31:34.400Z,2.53
2022-09-17T15:34:04.374Z,3.95
2022-09-17T15:36:34.427Z,5.20
2022-09-17T15:39:26.708Z,3.53
2022-09-17T15:42:00.781Z,4.47
2022-09-17T15:44:31.685Z,3.22
2022-09-17T15:47:39.757Z,3.45
2022-09-17T15:50:15.799Z,2.95
2022-09-17T15:52:46.188Z,6.72
2022-09-17T15:55:45.027Z,4.47
2022-09-17T15:58:38.054Z,4.50
2022-09-17T16:01:19.680Z,2.90
2022-09-17T16:04:03.015Z,3.22
2022-09-17T16:06:34.451Z,5.68
2022-09-17T16:09:04.883Z,4.30
2022-09-17T16:11:34.893Z,4.63
2022-09-17T16:14:04.867Z,4.18
2022-09-17T16:16:38.584Z,6.80
2022-09-17T16:19:08.559Z,6.53
2022-09-17T16:21:38.590Z,6.95
2022-09-17T16:24:08.653Z,5.72
2022-09-17T16:26:39.313Z,6.07
2022-09-17T16:29:16.952Z,4.38
2022-09-17T16:31:46.953Z,5.07
2022-09-17T16:34:16.874Z,6.88
2022-09-17T16:36:46.783Z,7.53
2022-09-17T16:39:16.683Z,7.68
2022-09-17T16:41:46.596Z,6.00
2022-09-17T16:44:16.478Z,5.00
2022-09-17T16:46:46.500Z,4.00
2022-09-17T16:49:17.149Z,6.47
2022-09-17T16:51:47.105Z,7.15
2022-09-17T16:54:17.051Z,7.60
2022-09-17T16:56:47.220Z,7.13
2022-09-17T16:59:17.465Z,6.55
2022-09-17T17:01:49.734Z,6.95
2022-09-17T17:04:21.307Z,6.73
2022-09-17T17:06:51.222Z,4.95
2022-09-17T17:09:21.089Z,7.22
2022-09-17T17:11:51.872Z,7.53
2022-09-17T17:14:21.887Z,5.82
2022-09-17T17:16:51.831Z,6.25
2022-09-17T17:19:21.736Z,6.68
2022-09-17T17:21:54.928Z,4.55
2022-09-17T17:24:25.025Z,7.15
2022-09-17T17:26:54.994Z,8.80
2022-09-17T17:29:24.882Z,5.13
2022-09-17T17:31:54.828Z,5.18
2022-09-17T17:34:24.792Z,6.45
2022-09-17T17:36:54.775Z,5.60
2022-09-17T17:39:24.991Z,6.35
2022-09-17T17:41:55.870Z,6.18
2022-09-17T17:44:25.873Z,5.20
2022-09-17T17:46:56.663Z,5.20
2022-09-17T17:49:26.566Z,5.55
2022-09-17T17:51:56.598Z,5.32
2022-09-17T17:54:28.633Z,5.22
2022-09-17T17:56:58.603Z,4.60
2022-09-17T17:59:28.749Z,5.70
2022-09-17T18:01:58.853Z,5.22
2022-09-17T18:04:28.822Z,6.85
2022-09-17T18:06:58.754Z,4.63
2022-09-17T18:09:28.668Z,4.53
2022-09-17T18:11:58.791Z,5.55
2022-09-17T18:14:28.740Z,4.22
2022-09-17T18:16:58.712Z,5.15
2022-09-17T18:19:28.592Z,5.00
2022-09-17T18:21:58.595Z,4.82
2022-09-17T18:24:28.471Z,4.97
2022-09-17T18:26:58.350Z,3.42
2022-09-17T18:29:28.332Z,3.60
2022-09-17T18:31:58.266Z,4.90
2022-09-17T18:34:28.527Z,3.28
2022-09-17T18:36:58.433Z,3.20
2022-09-17T18:42:18.365Z,3.58
2022-09-17T18:44:48.430Z,3.67
2022-09-17T18:47:18.896Z,10.88
2022-09-17T18:49:48.828Z,3.33
2022-09-17T18:52:18.761Z,2.67
2022-09-17T18:54:48.773Z,3.28
2022-09-17T18:57:18.659Z,6.47
2022-09-17T18:59:48.811Z,4.07
2022-09-17T19:02:18.781Z,5.13
2022-09-17T19:04:48.838Z,2.60
2022-09-17T19:07:18.737Z,3.92
2022-09-17T19:09:48.651Z,2.67
2022-09-17T19:12:18.547Z,3.55
2022-09-17T19:14:48.457Z,2.97
2022-09-17T19:17:18.863Z,4.40
2022-09-17T19:19:48.896Z,3.15
2022-09-17T19:22:19.171Z,3.58
2022-09-17T19:24:49.094Z,3.63
2022-09-17T19:27:18.971Z,5.05
2022-09-17T19:29:48.867Z,3.22
2022-09-17T19:32:18.944Z,3.35
2022-09-17T19:34:48.929Z,3.05
2022-09-17T19:37:19.335Z,3.33
2022-09-17T19:39:49.374Z,2.38
2022-09-17T19:42:19.315Z,2.40
2022-09-17T19:44:49.184Z,2.60
2022-09-17T19:47:19.336Z,3.08
2022-09-17T19:49:52.067Z,2.30
2022-09-17T19:52:22.005Z,3.17
2022-09-17T19:54:53.250Z,2.70
2022-09-17T19:57:23.209Z,3.45
2022-09-17T19:59:53.093Z,3.05
2022-09-17T20:02:23.131Z,2.78
2022-09-17T20:04:53.107Z,3.20
2022-09-17T20:07:23.035Z,2.45
2022-09-17T20:09:53.072Z,3.38
2022-09-17T20:12:23.093Z,2.42
2022-09-17T20:14:52.969Z,3.03
2022-09-17T20:17:23.165Z,2.20
2022-09-17T20:19:53.056Z,2.72
2022-09-17T20:22:22.965Z,2.22
2022-09-17T20:24:52.841Z,2.10
2022-09-17T20:27:22.825Z,2.60
2022-09-17T20:29:52.837Z,3.45
2022-09-17T20:32:23.067Z,1.90
2022-09-17T20:34:52.958Z,2.13
2022-09-17T20:37:55.263Z,2.35
2022-09-17T20:40:14.183Z,1.55
2022-09-17T20:42:44.220Z,2.88
2022-09-17T20:45:14.205Z,1.60
2022-09-17T20:47:45.121Z,2.42
2022-09-17T20:50:15.747Z,2.08
2022-09-17T20:52:46.367Z,2.20
2022-09-17T20:55:16.355Z,1.73
2022-09-17T20:57:46.265Z,2.63
2022-09-17T21:00:22.145Z,1.92
2022-09-17T21:02:53.422Z,3.05
2022-09-17T21:05:23.507Z,3.88
2022-09-17T21:07:53.425Z,2.28
2022-09-17T21:10:24.019Z,2.00
2022-09-17T21:12:54.261Z,1.92
2022-09-17T21:15:24.348Z,1.90
2022-09-17T21:17:55.064Z,2.25
2022-09-17T21:20:25.926Z,2.05
2022-09-17T21:22:56.024Z,2.20
2022-09-17T21:25:25.983Z,3.95
2022-09-17T21:27:55.969Z,3.58
2022-09-17T21:30:26.973Z,2.08
2022-09-17T21:32:57.646Z,2.10
2022-09-17T21:35:31.584Z,1.73
2022-09-17T21:38:01.700Z,1.63
2022-09-17T21:40:32.624Z,1.70
2022-09-17T21:43:02.664Z,1.45
2022-09-17T21:45:32.662Z,2.33
2022-09-17T21:48:03.493Z,2.03
2022-09-17T21:50:34.522Z,1.50
2022-09-17T21:53:04.616Z,1.85
2022-09-17T21:55:34.582Z,1.55
2022-09-17T21:58:04.467Z,2.80
2022-09-17T22:00:34.772Z,1.70
2022-09-17T22:03:05.672Z,1.50
2022-09-17T22:05:35.823Z,1.83
2022-09-17T22:08:06.168Z,2.65
2022-09-17T22:10:36.621Z,1.40
2022-09-17T22:13:06.615Z,1.90
2022-09-17T22:15:36.632Z,1.48
2022-09-17T22:18:10.901Z,1.30
2022-09-17T22:20:43.848Z,1.23
2022-09-17T22:23:13.714Z,2.35
2022-09-17T22:25:43.676Z,3.03
2022-09-17T22:28:21.386Z,1.30
2022-09-17T22:30:53.028Z,1.65
2022-09-17T22:33:23.808Z,1.15
2022-09-17T22:35:53.992Z,3.47
2022-09-17T22:38:24.048Z,1.63
2022-09-17T22:40:55.856Z,1.65
2022-09-17T22:43:26.920Z,1.33
2022-09-17T22:45:57.027Z,1.25
2022-09-17T22:48:27.845Z,1.45
2022-09-17T22:50:58.578Z,2.40
2022-09-17T22:53:28.504Z,2.25
2022-09-17T22:55:59.122Z,1.45
2022-09-17T22:58:29.251Z,2.20
2022-09-17T23:01:00.041Z,1.23
2022-09-17T23:03:30.810Z,1.98
2022-09-17T23:06:03.439Z,0.77
2022-09-17T23:08:34.040Z,1.35
2022-09-17T23:11:04.266Z,0.90
2022-09-17T23:13:34.276Z,1.42
2022-09-17T23:16:08.962Z,1.40
2022-09-17T23:18:39.268Z,1.50
2022-09-17T23:21:14.476Z,1.13
2022-09-17T23:23:45.291Z,1.52
2022-09-17T23:26:17.153Z,2.20
2022-09-17T23:28:49.095Z,1.35
2022-09-17T23:31:20.115Z,2.65
2022-09-17T23:33:50.511Z,1.52
2022-09-17T23:36:24.987Z,2.20
2022-09-17T23:38:55.179Z,1.42
2022-09-17T23:41:26.557Z,1.67
2022-09-17T23:43:58.011Z,1.30
2022-09-17T23:46:29.658Z,1.70
2022-09-17T23:48:59.869Z,1.02
2022-09-17T23:51:31.885Z,1.45
2022-09-17T23:54:02.086Z,2.08
2022-09-17T23:56:32.228Z,2.95
2022-09-17T23:59:02.714Z,1.25
